AMX1046 MMUN-MMCZ
Flight info
| Callsign | AMX1046 |
|---|---|
| Flight time | 0h 10m |
| Altitude | 6000 |
| Route | LIDEK2A LIDEK B881 CZM |
| Aircraft | B738/M-SDE2E3FGHIRWXY/LB1 |
Departure
| Time | 2026-04-22 00:53 |
|---|---|
| Airport | Cancún International Airport (MMUN) |
Arrival
| Time | 2026-04-22 01:03 |
|---|---|
| Airport | Cozumel International Airport (MMCZ) |
| Time | Latitude | Longitude | Altitude | Speed | Heading |
|---|---|---|---|---|---|
| 2026-04-22 00:44 | 21.04143 | -86.88038 | 41 ft | 0 kts | 304° |
| 2026-04-22 00:45 | 21.04137 | -86.88028 | 41 ft | 3 kts | 304° |
| 2026-04-22 00:45 | 21.04127 | -86.88012 | 41 ft | 3 kts | 304° |
| 2026-04-22 00:45 | 21.04121 | -86.87993 | 41 ft | 3 kts | 249° |
| 2026-04-22 00:46 | 21.04123 | -86.87987 | 41 ft | 0 kts | 227° |
| 2026-04-22 00:46 | 21.04123 | -86.87986 | 41 ft | 0 kts | 222° |
| 2026-04-22 00:46 | 21.04124 | -86.87986 | 42 ft | 0 kts | 219° |
| 2026-04-22 00:49 | 21.04110 | -86.87998 | 39 ft | 6 kts | 220° |
| 2026-04-22 00:50 | 21.04081 | -86.88053 | 39 ft | 12 kts | 267° |
| 2026-04-22 00:50 | 21.04133 | -86.88139 | 41 ft | 16 kts | 302° |
| 2026-04-22 00:50 | 21.04204 | -86.88250 | 40 ft | 20 kts | 304° |
| 2026-04-22 00:50 | 21.04286 | -86.88389 | 40 ft | 24 kts | 296° |
| 2026-04-22 00:51 | 21.04384 | -86.88547 | 40 ft | 27 kts | 302° |
| 2026-04-22 00:51 | 21.04483 | -86.88716 | 40 ft | 26 kts | 303° |
| 2026-04-22 00:51 | 21.04586 | -86.88866 | 41 ft | 24 kts | 308° |
| 2026-04-22 00:51 | 21.04622 | -86.88986 | 40 ft | 13 kts | 240° |
| 2026-04-22 00:52 | 21.04551 | -86.89059 | 34 ft | 15 kts | 207° |
| 2026-04-22 00:52 | 21.04453 | -86.88957 | 36 ft | 48 kts | 127° |
| 2026-04-22 00:52 | 21.04078 | -86.88367 | 38 ft | 140 kts | 124° |
| 2026-04-22 00:52 | 21.03410 | -86.87298 | 372 ft | 194 kts | 123° |
| 2026-04-22 00:53 | 21.02603 | -86.85984 | 889 ft | 229 kts | 122° |
| 2026-04-22 00:53 | 21.01694 | -86.84475 | 1522 ft | 252 kts | 124° |
| 2026-04-22 00:53 | 21.00385 | -86.83212 | 2022 ft | 253 kts | 152° |
| 2026-04-22 00:53 | 20.98654 | -86.82844 | 1438 ft | 261 kts | 186° |
| 2026-04-22 00:54 | 20.96967 | -86.83221 | 1679 ft | 241 kts | 193° |
| 2026-04-22 00:54 | 20.95324 | -86.83666 | 1693 ft | 249 kts | 192° |
| 2026-04-22 00:54 | 20.93561 | -86.84082 | 2187 ft | 267 kts | 189° |
| 2026-04-22 00:54 | 20.91722 | -86.84436 | 3256 ft | 270 kts | 187° |
| 2026-04-22 00:55 | 20.89874 | -86.84765 | 3784 ft | 273 kts | 187° |
| 2026-04-22 00:55 | 20.87992 | -86.85098 | 3988 ft | 277 kts | 190° |
| 2026-04-22 00:55 | 20.84720 | -86.87174 | 4011 ft | 279 kts | 221° |
| 2026-04-22 00:56 | 20.83278 | -86.88581 | 4012 ft | 281 kts | 219° |
| 2026-04-22 00:56 | 20.81593 | -86.89614 | 3954 ft | 279 kts | 200° |
| 2026-04-22 00:56 | 20.79760 | -86.90336 | 3777 ft | 281 kts | 198° |
| 2026-04-22 00:56 | 20.77957 | -86.91060 | 3625 ft | 279 kts | 201° |
| 2026-04-22 00:57 | 20.76195 | -86.91891 | 3470 ft | 275 kts | 203° |
| 2026-04-22 00:57 | 20.74462 | -86.92750 | 3319 ft | 274 kts | 203° |
| 2026-04-22 00:57 | 20.72732 | -86.93606 | 3165 ft | 271 kts | 202° |
| 2026-04-22 00:57 | 20.71041 | -86.94434 | 3005 ft | 265 kts | 202° |
| 2026-04-22 00:58 | 20.69381 | -86.95238 | 2848 ft | 258 kts | 202° |
| 2026-04-22 00:58 | 20.67759 | -86.96016 | 2693 ft | 253 kts | 202° |
| 2026-04-22 00:58 | 20.66172 | -86.96774 | 2557 ft | 245 kts | 202° |
| 2026-04-22 00:58 | 20.64654 | -86.97498 | 2414 ft | 234 kts | 202° |
| 2026-04-22 00:59 | 20.63209 | -86.98187 | 2260 ft | 221 kts | 202° |
| 2026-04-22 00:59 | 20.61856 | -86.98830 | 2113 ft | 210 kts | 202° |
| 2026-04-22 00:59 | 20.60554 | -86.99450 | 1969 ft | 199 kts | 202° |
| 2026-04-22 00:59 | 20.59346 | -87.00025 | 1795 ft | 190 kts | 202° |
| 2026-04-22 01:00 | 20.58186 | -87.00577 | 1668 ft | 178 kts | 202° |
| 2026-04-22 01:00 | 20.57027 | -87.01117 | 1719 ft | 182 kts | 199° |
| 2026-04-22 01:00 | 20.55828 | -87.01235 | 1718 ft | 165 kts | 156° |
| 2026-04-22 01:00 | 20.55024 | -87.00530 | 1846 ft | 151 kts | 126° |
| 2026-04-22 01:01 | 20.54504 | -86.99592 | 1880 ft | 143 kts | 113° |
| 2026-04-22 01:01 | 20.54073 | -86.98632 | 1738 ft | 144 kts | 112° |
| 2026-04-22 01:01 | 20.53648 | -86.97673 | 1552 ft | 141 kts | 112° |
| 2026-04-22 01:01 | 20.53230 | -86.96734 | 1358 ft | 140 kts | 112° |
| 2026-04-22 01:02 | 20.52796 | -86.95787 | 1003 ft | 145 kts | 114° |
| 2026-04-22 01:02 | 20.52338 | -86.94787 | 351 ft | 160 kts | 112° |
| 2026-04-22 01:02 | 20.51894 | -86.93745 | 26 ft | 145 kts | 115° |
| 2026-04-22 01:02 | 20.51591 | -86.93073 | 21 ft | 56 kts | 116° |
| 2026-04-22 01:03 | 20.51477 | -86.92829 | 21 ft | 14 kts | 117° |
| 2026-04-22 01:03 | 20.51456 | -86.92804 | 24 ft | 7 kts | 145° |